サンフランシスコ の空港の天気 - METARとTAF

サンフランシスコ国際空港 ( KSFO / SFO ) - アメリカ カリフォルニア州サンマテオ郡
飛行場実況気象(Metar)
観測時間08/17 03:56 PDT (08/17 10:56 UTC)
風向・風速静穏 0m/s
視程10km以上
天気現象
なし
気温16.1℃
湿度78%
気圧1009hPa
METARKSFO 171056Z 00000KT 10SM CLR 16/12 A2980 RMK AO2 SLP090 T01610122
過去の天気等 Google飛行場航空写真 Wunderground天気予報

過去48時間のMETAR

飛行場予報(TAF)
発表時間: 8/17 02:04 PDT (8/17 09:04 UTC)
予報対象時間: 17日2時 PDT ~ 18日5時 PDT
風向・風速南 4m/s
視程10km以上
少しの雲 雲底高度 240m
17日9時 PDT から
風向・風速南西 3m/s
視程10km以上
少しの雲 雲底高度 300m
17日14時 PDT から
風向・風速西 8m/s
視程10km以上
なし
17日21時 PDT から
風向・風速西 4m/s
視程10km以上
少しの雲 雲底高度 300m
KSFO 170904Z 1709/1812 17008KT P6SM FEW008
FM171600 23006KT P6SM FEW010
FM172100 26015KT P6SM SKC
FM180400 26008KT P6SM FEW010